sensor_id;sensor_type;location;lat;lon;timestamp;P1;durP1;ratioP1;P2;durP2;ratioP2
70201;SDS011;57724;52.164;5.408;2022-08-11T00:01:08;8.27;;;2.58;;
70201;SDS011;57724;52.164;5.408;2022-08-11T00:03:44;5.28;;;2.67;;
70201;SDS011;57724;52.164;5.408;2022-08-11T00:06:13;4.97;;;2.85;;
70201;SDS011;57724;52.164;5.408;2022-08-11T00:08:48;6.97;;;2.90;;
70201;SDS011;57724;52.164;5.408;2022-08-11T00:11:16;4.88;;;2.47;;
70201;SDS011;57724;52.164;5.408;2022-08-11T00:13:45;6.50;;;3.05;;
70201;SDS011;57724;52.164;5.408;2022-08-11T00:16:16;5.28;;;2.67;;
70201;SDS011;57724;52.164;5.408;2022-08-11T00:18:48;9.25;;;2.80;;
70201;SDS011;57724;52.164;5.408;2022-08-11T00:21:21;7.38;;;2.78;;
70201;SDS011;57724;52.164;5.408;2022-08-11T00:24:10;6.35;;;2.83;;
70201;SDS011;57724;52.164;5.408;2022-08-11T00:26:37;7.90;;;2.72;;
70201;SDS011;57724;52.164;5.408;2022-08-11T00:29:10;5.28;;;2.65;;
70201;SDS011;57724;52.164;5.408;2022-08-11T00:31:37;5.78;;;2.78;;
70201;SDS011;57724;52.164;5.408;2022-08-11T00:34:11;7.55;;;2.85;;
70201;SDS011;57724;52.164;5.408;2022-08-11T00:36:51;5.60;;;2.72;;
70201;SDS011;57724;52.164;5.408;2022-08-11T00:39:21;9.68;;;3.03;;
70201;SDS011;57724;52.164;5.408;2022-08-11T00:41:58;6.22;;;2.97;;
70201;SDS011;57724;52.164;5.408;2022-08-11T00:50:13;7.85;;;2.83;;
70201;SDS011;57724;52.164;5.408;2022-08-11T00:53:06;6.07;;;2.83;;
70201;SDS011;57724;52.164;5.408;2022-08-11T00:56:02;7.65;;;3.00;;
70201;SDS011;57724;52.164;5.408;2022-08-11T01:01:58;6.38;;;2.80;;
70201;SDS011;57724;52.164;5.408;2022-08-11T01:13:32;7.63;;;3.03;;
70201;SDS011;57724;52.164;5.408;2022-08-11T01:18:52;5.38;;;2.80;;
70201;SDS011;57724;52.164;5.408;2022-08-11T01:24:41;5.78;;;2.83;;
70201;SDS011;57724;52.164;5.408;2022-08-11T01:30:47;10.40;;;3.40;;
70201;SDS011;57724;52.164;5.408;2022-08-11T01:39:34;7.43;;;3.20;;
70201;SDS011;57724;52.164;5.408;2022-08-11T01:45:36;9.65;;;3.40;;
70201;SDS011;57724;52.164;5.408;2022-08-11T01:54:30;5.90;;;3.13;;
70201;SDS011;57724;52.164;5.408;2022-08-11T02:00:16;5.03;;;3.10;;
70201;SDS011;57724;52.164;5.408;2022-08-11T02:05:49;7.65;;;3.53;;
70201;SDS011;57724;52.164;5.408;2022-08-11T02:09:06;7.03;;;3.53;;
70201;SDS011;57724;52.164;5.408;2022-08-11T02:11:44;6.97;;;3.30;;
70201;SDS011;57724;52.164;5.408;2022-08-11T02:14:22;6.65;;;3.47;;
70201;SDS011;57724;52.164;5.408;2022-08-11T02:17:00;7.72;;;3.40;;
70201;SDS011;57724;52.164;5.408;2022-08-11T02:20:19;9.68;;;3.58;;
70201;SDS011;57724;52.164;5.408;2022-08-11T02:23:38;6.38;;;3.47;;
70201;SDS011;57724;52.164;5.408;2022-08-11T02:26:49;6.70;;;3.25;;
70201;SDS011;57724;52.164;5.408;2022-08-11T02:29:32;5.00;;;3.03;;
70201;SDS011;57724;52.164;5.408;2022-08-11T02:35:18;7.20;;;3.70;;
70201;SDS011;57724;52.164;5.408;2022-08-11T02:38:08;10.25;;;3.80;;
70201;SDS011;57724;52.164;5.408;2022-08-11T02:41:00;8.00;;;3.70;;
70201;SDS011;57724;52.164;5.408;2022-08-11T02:46:35;6.32;;;3.50;;
70201;SDS011;57724;52.164;5.408;2022-08-11T02:49:40;7.68;;;3.55;;
70201;SDS011;57724;52.164;5.408;2022-08-11T02:56:05;7.90;;;3.80;;
70201;SDS011;57724;52.164;5.408;2022-08-11T03:01:40;8.60;;;4.00;;
70201;SDS011;57724;52.164;5.408;2022-08-11T03:04:17;7.22;;;3.83;;
70201;SDS011;57724;52.164;5.408;2022-08-11T03:07:07;8.93;;;3.80;;
70201;SDS011;57724;52.164;5.408;2022-08-11T03:10:02;9.82;;;3.95;;
70201;SDS011;57724;52.164;5.408;2022-08-11T03:12:43;9.40;;;3.92;;
70201;SDS011;57724;52.164;5.408;2022-08-11T03:15:49;7.90;;;4.13;;
70201;SDS011;57724;52.164;5.408;2022-08-11T03:21:18;11.63;;;4.22;;
70201;SDS011;57724;52.164;5.408;2022-08-11T03:23:54;9.63;;;4.20;;
70201;SDS011;57724;52.164;5.408;2022-08-11T03:29:20;8.85;;;3.97;;
70201;SDS011;57724;52.164;5.408;2022-08-11T03:34:44;8.15;;;4.40;;
70201;SDS011;57724;52.164;5.408;2022-08-11T03:49:22;7.20;;;4.15;;
70201;SDS011;57724;52.164;5.408;2022-08-11T03:52:10;9.75;;;4.53;;
70201;SDS011;57724;52.164;5.408;2022-08-11T03:54:54;11.32;;;4.43;;
70201;SDS011;57724;52.164;5.408;2022-08-11T04:00:38;7.97;;;4.50;;
70201;SDS011;57724;52.164;5.408;2022-08-11T04:06:12;9.38;;;4.72;;
70201;SDS011;57724;52.164;5.408;2022-08-11T04:08:52;7.32;;;4.35;;
70201;SDS011;57724;52.164;5.408;2022-08-11T04:15:12;8.40;;;4.40;;
70201;SDS011;57724;52.164;5.408;2022-08-11T04:30:18;9.10;;;4.65;;
70201;SDS011;57724;52.164;5.408;2022-08-11T04:33:01;8.38;;;4.30;;
70201;SDS011;57724;52.164;5.408;2022-08-11T04:48:22;9.73;;;4.65;;
70201;SDS011;57724;52.164;5.408;2022-08-11T04:51:21;9.38;;;4.50;;
70201;SDS011;57724;52.164;5.408;2022-08-11T04:54:52;9.95;;;4.70;;
70201;SDS011;57724;52.164;5.408;2022-08-11T05:07:03;8.82;;;4.30;;
70201;SDS011;57724;52.164;5.408;2022-08-11T05:15:17;9.80;;;4.97;;
70201;SDS011;57724;52.164;5.408;2022-08-11T05:18:15;9.05;;;4.63;;
70201;SDS011;57724;52.164;5.408;2022-08-11T05:21:05;9.93;;;4.43;;
70201;SDS011;57724;52.164;5.408;2022-08-11T05:24:05;11.85;;;4.90;;
70201;SDS011;57724;52.164;5.408;2022-08-11T05:27:11;10.20;;;4.72;;
70201;SDS011;57724;52.164;5.408;2022-08-11T05:30:08;11.70;;;4.45;;
70201;SDS011;57724;52.164;5.408;2022-08-11T05:33:09;8.95;;;4.55;;
70201;SDS011;57724;52.164;5.408;2022-08-11T05:36:14;9.13;;;5.00;;
70201;SDS011;57724;52.164;5.408;2022-08-11T05:39:12;10.50;;;4.75;;
70201;SDS011;57724;52.164;5.408;2022-08-11T05:42:03;11.20;;;4.90;;
70201;SDS011;57724;52.164;5.408;2022-08-11T05:45:00;10.75;;;4.93;;
70201;SDS011;57724;52.164;5.408;2022-08-11T05:47:50;10.55;;;4.72;;
70201;SDS011;57724;52.164;5.408;2022-08-11T05:50:36;9.63;;;4.82;;
70201;SDS011;57724;52.164;5.408;2022-08-11T05:53:23;12.45;;;5.10;;
70201;SDS011;57724;52.164;5.408;2022-08-11T05:56:11;10.20;;;5.03;;
70201;SDS011;57724;52.164;5.408;2022-08-11T05:58:45;8.68;;;4.88;;
70201;SDS011;57724;52.164;5.408;2022-08-11T06:01:23;12.60;;;4.85;;
70201;SDS011;57724;52.164;5.408;2022-08-11T06:03:54;11.15;;;4.97;;
70201;SDS011;57724;52.164;5.408;2022-08-11T06:09:25;12.90;;;5.72;;
70201;SDS011;57724;52.164;5.408;2022-08-11T06:11:55;10.50;;;5.20;;
70201;SDS011;57724;52.164;5.408;2022-08-11T06:14:25;10.30;;;5.63;;
70201;SDS011;57724;52.164;5.408;2022-08-11T06:16:57;10.00;;;5.03;;
70201;SDS011;57724;52.164;5.408;2022-08-11T06:19:59;10.48;;;5.10;;
70201;SDS011;57724;52.164;5.408;2022-08-11T06:22:32;9.43;;;5.20;;
70201;SDS011;57724;52.164;5.408;2022-08-11T06:25:00;9.80;;;4.88;;
70201;SDS011;57724;52.164;5.408;2022-08-11T06:27:30;9.48;;;4.93;;
70201;SDS011;57724;52.164;5.408;2022-08-11T06:29:59;13.40;;;5.22;;
70201;SDS011;57724;52.164;5.408;2022-08-11T06:32:29;10.70;;;4.80;;
70201;SDS011;57724;52.164;5.408;2022-08-11T06:37:45;11.48;;;6.30;;
70201;SDS011;57724;52.164;5.408;2022-08-11T06:40:30;11.43;;;4.68;;
70201;SDS011;57724;52.164;5.408;2022-08-11T06:43:51;10.00;;;4.75;;
70201;SDS011;57724;52.164;5.408;2022-08-11T06:46:31;10.95;;;4.90;;
70201;SDS011;57724;52.164;5.408;2022-08-11T06:49:07;10.35;;;5.13;;
70201;SDS011;57724;52.164;5.408;2022-08-11T06:51:58;9.07;;;4.38;;
70201;SDS011;57724;52.164;5.408;2022-08-11T06:54:34;10.77;;;4.72;;
70201;SDS011;57724;52.164;5.408;2022-08-11T06:57:09;11.00;;;4.85;;
70201;SDS011;57724;52.164;5.408;2022-08-11T06:59:57;11.82;;;4.70;;
70201;SDS011;57724;52.164;5.408;2022-08-11T07:03:05;8.68;;;4.63;;
70201;SDS011;57724;52.164;5.408;2022-08-11T07:05:44;10.85;;;4.22;;
70201;SDS011;57724;52.164;5.408;2022-08-11T07:08:25;9.18;;;4.15;;
70201;SDS011;57724;52.164;5.408;2022-08-11T07:11:51;10.23;;;4.50;;
70201;SDS011;57724;52.164;5.408;2022-08-11T07:15:02;9.90;;;4.43;;
70201;SDS011;57724;52.164;5.408;2022-08-11T07:18:24;9.25;;;4.05;;
70201;SDS011;57724;52.164;5.408;2022-08-11T07:24:39;10.95;;;5.50;;
70201;SDS011;57724;52.164;5.408;2022-08-11T07:27:31;10.30;;;4.10;;
70201;SDS011;57724;52.164;5.408;2022-08-11T07:30:25;11.95;;;4.65;;
70201;SDS011;57724;52.164;5.408;2022-08-11T07:32:55;8.82;;;4.15;;
70201;SDS011;57724;52.164;5.408;2022-08-11T07:35:35;10.13;;;4.32;;
70201;SDS011;57724;52.164;5.408;2022-08-11T07:38:09;9.35;;;4.10;;
70201;SDS011;57724;52.164;5.408;2022-08-11T07:40:50;11.40;;;4.28;;
70201;SDS011;57724;52.164;5.408;2022-08-11T07:43:17;11.05;;;4.30;;
70201;SDS011;57724;52.164;5.408;2022-08-11T07:45:44;9.50;;;3.92;;
70201;SDS011;57724;52.164;5.408;2022-08-11T07:48:31;6.50;;;3.80;;
70201;SDS011;57724;52.164;5.408;2022-08-11T07:51:18;10.27;;;4.18;;
70201;SDS011;57724;52.164;5.408;2022-08-11T07:54:05;8.88;;;4.05;;
70201;SDS011;57724;52.164;5.408;2022-08-11T07:56:42;8.48;;;4.18;;
70201;SDS011;57724;52.164;5.408;2022-08-11T07:59:21;8.98;;;4.03;;
70201;SDS011;57724;52.164;5.408;2022-08-11T08:02:36;6.65;;;3.70;;
70201;SDS011;57724;52.164;5.408;2022-08-11T08:05:23;7.18;;;3.65;;
70201;SDS011;57724;52.164;5.408;2022-08-11T08:08:09;10.48;;;3.72;;
70201;SDS011;57724;52.164;5.408;2022-08-11T08:10:55;8.57;;;3.83;;
70201;SDS011;57724;52.164;5.408;2022-08-11T08:13:41;11.30;;;4.05;;
70201;SDS011;57724;52.164;5.408;2022-08-11T08:16:28;8.93;;;3.60;;
70201;SDS011;57724;52.164;5.408;2022-08-11T08:19:15;7.97;;;3.67;;
70201;SDS011;57724;52.164;5.408;2022-08-11T08:21:44;11.18;;;3.95;;
70201;SDS011;57724;52.164;5.408;2022-08-11T08:24:12;5.95;;;3.55;;
70201;SDS011;57724;52.164;5.408;2022-08-11T08:26:41;7.78;;;3.95;;
70201;SDS011;57724;52.164;5.408;2022-08-11T08:29:28;9.73;;;3.95;;
70201;SDS011;57724;52.164;5.408;2022-08-11T08:32:16;8.52;;;3.47;;
70201;SDS011;57724;52.164;5.408;2022-08-11T08:34:45;7.07;;;3.40;;
70201;SDS011;57724;52.164;5.408;2022-08-11T08:37:12;5.70;;;3.30;;
70201;SDS011;57724;52.164;5.408;2022-08-11T08:40:01;8.52;;;3.40;;
70201;SDS011;57724;52.164;5.408;2022-08-11T08:42:29;6.53;;;3.38;;
70201;SDS011;57724;52.164;5.408;2022-08-11T08:45:03;8.77;;;3.15;;
70201;SDS011;57724;52.164;5.408;2022-08-11T08:47:36;14.68;;;5.10;;
70201;SDS011;57724;52.164;5.408;2022-08-11T08:50:12;8.02;;;3.42;;
70201;SDS011;57724;52.164;5.408;2022-08-11T08:52:46;7.57;;;3.25;;
70201;SDS011;57724;52.164;5.408;2022-08-11T08:57:47;9.10;;;3.40;;
70201;SDS011;57724;52.164;5.408;2022-08-11T09:00:15;6.03;;;3.30;;
70201;SDS011;57724;52.164;5.408;2022-08-11T09:02:48;6.43;;;3.08;;
70201;SDS011;57724;52.164;5.408;2022-08-11T09:07:44;7.55;;;3.30;;
70201;SDS011;57724;52.164;5.408;2022-08-11T09:10:16;9.23;;;3.58;;
70201;SDS011;57724;52.164;5.408;2022-08-11T09:12:45;7.45;;;2.83;;
70201;SDS011;57724;52.164;5.408;2022-08-11T09:15:13;8.98;;;3.03;;
70201;SDS011;57724;52.164;5.408;2022-08-11T09:17:46;5.10;;;2.88;;
70201;SDS011;57724;52.164;5.408;2022-08-11T09:20:23;12.00;;;3.40;;
70201;SDS011;57724;52.164;5.408;2022-08-11T09:26:00;6.35;;;3.10;;
70201;SDS011;57724;52.164;5.408;2022-08-11T09:28:46;6.10;;;3.10;;
70201;SDS011;57724;52.164;5.408;2022-08-11T09:31:15;8.77;;;2.92;;
70201;SDS011;57724;52.164;5.408;2022-08-11T09:33:42;8.88;;;2.92;;
70201;SDS011;57724;52.164;5.408;2022-08-11T09:36:11;8.38;;;3.17;;
70201;SDS011;57724;52.164;5.408;2022-08-11T09:38:57;6.10;;;2.90;;
70201;SDS011;57724;52.164;5.408;2022-08-11T09:41:46;9.00;;;3.30;;
70201;SDS011;57724;52.164;5.408;2022-08-11T09:47:18;7.90;;;3.38;;
70201;SDS011;57724;52.164;5.408;2022-08-11T09:49:51;7.78;;;3.00;;
70201;SDS011;57724;52.164;5.408;2022-08-11T09:52:21;7.97;;;3.10;;
70201;SDS011;57724;52.164;5.408;2022-08-11T09:54:49;7.82;;;3.22;;
70201;SDS011;57724;52.164;5.408;2022-08-11T09:57:18;5.38;;;2.88;;
70201;SDS011;57724;52.164;5.408;2022-08-11T10:00:06;6.43;;;2.88;;
70201;SDS011;57724;52.164;5.408;2022-08-11T10:02:43;6.97;;;3.20;;
70201;SDS011;57724;52.164;5.408;2022-08-11T10:05:13;7.22;;;3.17;;
70201;SDS011;57724;52.164;5.408;2022-08-11T10:08:02;4.38;;;2.70;;
70201;SDS011;57724;52.164;5.408;2022-08-11T10:10:30;6.32;;;3.05;;
70201;SDS011;57724;52.164;5.408;2022-08-11T10:13:02;7.60;;;2.97;;
70201;SDS011;57724;52.164;5.408;2022-08-11T10:15:53;5.90;;;2.75;;
70201;SDS011;57724;52.164;5.408;2022-08-11T10:18:40;5.13;;;3.00;;
70201;SDS011;57724;52.164;5.408;2022-08-11T10:21:09;7.13;;;2.67;;
70201;SDS011;57724;52.164;5.408;2022-08-11T10:23:39;5.93;;;2.80;;
70201;SDS011;57724;52.164;5.408;2022-08-11T10:26:31;5.68;;;2.75;;
70201;SDS011;57724;52.164;5.408;2022-08-11T10:29:19;7.03;;;2.90;;
70201;SDS011;57724;52.164;5.408;2022-08-11T10:32:22;11.80;;;2.75;;
70201;SDS011;57724;52.164;5.408;2022-08-11T10:35:23;3.28;;;2.47;;
70201;SDS011;57724;52.164;5.408;2022-08-11T10:37:51;4.57;;;2.45;;
70201;SDS011;57724;52.164;5.408;2022-08-11T10:40:35;7.25;;;2.60;;
70201;SDS011;57724;52.164;5.408;2022-08-11T10:43:05;6.32;;;3.22;;
70201;SDS011;57724;52.164;5.408;2022-08-11T10:45:41;6.82;;;2.67;;
70201;SDS011;57724;52.164;5.408;2022-08-11T10:48:29;4.32;;;2.70;;
70201;SDS011;57724;52.164;5.408;2022-08-11T10:51:01;7.70;;;2.58;;
70201;SDS011;57724;52.164;5.408;2022-08-11T10:53:40;7.90;;;2.85;;
70201;SDS011;57724;52.164;5.408;2022-08-11T10:56:28;6.97;;;2.60;;
70201;SDS011;57724;52.164;5.408;2022-08-11T10:59:17;6.18;;;2.35;;
70201;SDS011;57724;52.164;5.408;2022-08-11T11:01:44;6.97;;;2.50;;
70201;SDS011;57724;52.164;5.408;2022-08-11T11:04:12;6.28;;;2.53;;
70201;SDS011;57724;52.164;5.408;2022-08-11T11:06:53;8.65;;;2.58;;
70201;SDS011;57724;52.164;5.408;2022-08-11T11:09:31;5.22;;;2.35;;
70201;SDS011;57724;52.164;5.408;2022-08-11T11:15:19;6.63;;;2.60;;
70201;SDS011;57724;52.164;5.408;2022-08-11T11:18:10;5.07;;;2.75;;
70201;SDS011;57724;52.164;5.408;2022-08-11T11:20:42;3.72;;;2.67;;
70201;SDS011;57724;52.164;5.408;2022-08-11T11:23:15;5.28;;;2.33;;
70201;SDS011;57724;52.164;5.408;2022-08-11T11:25:54;7.47;;;2.70;;
70201;SDS011;57724;52.164;5.408;2022-08-11T11:34:34;7.50;;;2.53;;
70201;SDS011;57724;52.164;5.408;2022-08-11T11:37:32;5.75;;;2.55;;
70201;SDS011;57724;52.164;5.408;2022-08-11T11:40:01;4.38;;;2.67;;
70201;SDS011;57724;52.164;5.408;2022-08-11T11:42:35;7.32;;;2.50;;
70201;SDS011;57724;52.164;5.408;2022-08-11T11:45:05;6.78;;;2.58;;
70201;SDS011;57724;52.164;5.408;2022-08-11T11:47:41;4.43;;;2.40;;
70201;SDS011;57724;52.164;5.408;2022-08-11T11:50:09;8.38;;;2.47;;
70201;SDS011;57724;52.164;5.408;2022-08-11T11:52:38;8.27;;;2.50;;
70201;SDS011;57724;52.164;5.408;2022-08-11T11:55:06;7.78;;;2.67;;
70201;SDS011;57724;52.164;5.408;2022-08-11T11:57:34;5.72;;;2.70;;
70201;SDS011;57724;52.164;5.408;2022-08-11T12:00:24;5.38;;;2.22;;
70201;SDS011;57724;52.164;5.408;2022-08-11T12:03:10;3.70;;;2.30;;
70201;SDS011;57724;52.164;5.408;2022-08-11T12:05:38;5.20;;;2.50;;
70201;SDS011;57724;52.164;5.408;2022-08-11T12:08:08;6.07;;;2.60;;
70201;SDS011;57724;52.164;5.408;2022-08-11T12:10:51;6.00;;;2.38;;
70201;SDS011;57724;52.164;5.408;2022-08-11T12:13:39;4.93;;;2.30;;
70201;SDS011;57724;52.164;5.408;2022-08-11T12:16:10;9.80;;;2.30;;
70201;SDS011;57724;52.164;5.408;2022-08-11T12:18:59;4.53;;;2.30;;
70201;SDS011;57724;52.164;5.408;2022-08-11T12:21:28;4.15;;;2.00;;
70201;SDS011;57724;52.164;5.408;2022-08-11T12:23:56;4.53;;;2.22;;
70201;SDS011;57724;52.164;5.408;2022-08-11T12:26:44;5.07;;;2.20;;
70201;SDS011;57724;52.164;5.408;2022-08-11T12:29:35;6.40;;;2.17;;
70201;SDS011;57724;52.164;5.408;2022-08-11T12:32:09;3.47;;;2.10;;
70201;SDS011;57724;52.164;5.408;2022-08-11T12:34:36;6.28;;;2.22;;
70201;SDS011;57724;52.164;5.408;2022-08-11T12:37:03;4.38;;;2.35;;
70201;SDS011;57724;52.164;5.408;2022-08-11T12:42:46;6.20;;;2.22;;
70201;SDS011;57724;52.164;5.408;2022-08-11T12:45:47;5.78;;;2.40;;
70201;SDS011;57724;52.164;5.408;2022-08-11T12:48:25;6.32;;;2.30;;
70201;SDS011;57724;52.164;5.408;2022-08-11T12:51:27;5.47;;;2.50;;
70201;SDS011;57724;52.164;5.408;2022-08-11T12:57:19;4.43;;;2.30;;
70201;SDS011;57724;52.164;5.408;2022-08-11T13:00:11;5.45;;;2.28;;
70201;SDS011;57724;52.164;5.408;2022-08-11T13:02:58;3.85;;;2.30;;
70201;SDS011;57724;52.164;5.408;2022-08-11T13:05:45;6.03;;;2.47;;
70201;SDS011;57724;52.164;5.408;2022-08-11T13:08:12;6.57;;;2.30;;
70201;SDS011;57724;52.164;5.408;2022-08-11T13:10:40;4.25;;;2.25;;
70201;SDS011;57724;52.164;5.408;2022-08-11T13:13:27;3.22;;;2.25;;
70201;SDS011;57724;52.164;5.408;2022-08-11T13:16:15;6.30;;;2.20;;
70201;SDS011;57724;52.164;5.408;2022-08-11T13:18:43;4.95;;;2.35;;
70201;SDS011;57724;52.164;5.408;2022-08-11T13:21:10;3.85;;;2.00;;
70201;SDS011;57724;52.164;5.408;2022-08-11T13:23:46;5.85;;;2.25;;
70201;SDS011;57724;52.164;5.408;2022-08-11T13:26:30;3.33;;;2.20;;
70201;SDS011;57724;52.164;5.408;2022-08-11T13:29:19;4.10;;;2.30;;
70201;SDS011;57724;52.164;5.408;2022-08-11T13:31:48;6.28;;;2.30;;
70201;SDS011;57724;52.164;5.408;2022-08-11T13:34:17;2.83;;;2.15;;
70201;SDS011;57724;52.164;5.408;2022-08-11T13:39:14;5.97;;;2.30;;
70201;SDS011;57724;52.164;5.408;2022-08-11T13:41:41;4.93;;;2.40;;
70201;SDS011;57724;52.164;5.408;2022-08-11T13:44:12;4.72;;;2.28;;
70201;SDS011;57724;52.164;5.408;2022-08-11T13:46:45;4.50;;;2.38;;
70201;SDS011;57724;52.164;5.408;2022-08-11T13:49:18;4.13;;;2.40;;
70201;SDS011;57724;52.164;5.408;2022-08-11T13:51:46;6.13;;;2.40;;
70201;SDS011;57724;52.164;5.408;2022-08-11T13:54:15;3.08;;;2.20;;
70201;SDS011;57724;52.164;5.408;2022-08-11T13:56:45;5.70;;;2.33;;
70201;SDS011;57724;52.164;5.408;2022-08-11T13:59:16;6.88;;;2.13;;
70201;SDS011;57724;52.164;5.408;2022-08-11T14:02:00;4.32;;;2.20;;
70201;SDS011;57724;52.164;5.408;2022-08-11T14:05:02;4.10;;;2.10;;
70201;SDS011;57724;52.164;5.408;2022-08-11T14:07:36;6.88;;;2.38;;
70201;SDS011;57724;52.164;5.408;2022-08-11T14:10:07;5.38;;;2.60;;
70201;SDS011;57724;52.164;5.408;2022-08-11T14:12:36;4.40;;;2.20;;
70201;SDS011;57724;52.164;5.408;2022-08-11T14:15:27;3.75;;;2.42;;
70201;SDS011;57724;52.164;5.408;2022-08-11T14:18:08;5.10;;;2.25;;
70201;SDS011;57724;52.164;5.408;2022-08-11T14:20:46;4.25;;;2.40;;
70201;SDS011;57724;52.164;5.408;2022-08-11T14:23:43;6.35;;;2.20;;
70201;SDS011;57724;52.164;5.408;2022-08-11T14:26:13;5.03;;;2.17;;
70201;SDS011;57724;52.164;5.408;2022-08-11T14:29:40;3.80;;;2.20;;
70201;SDS011;57724;52.164;5.408;2022-08-11T14:31:44;5.03;;;2.38;;
70201;SDS011;57724;52.164;5.408;2022-08-11T14:34:17;2.78;;;2.20;;
70201;SDS011;57724;52.164;5.408;2022-08-11T14:36:48;4.88;;;2.25;;
70201;SDS011;57724;52.164;5.408;2022-08-11T14:39:26;8.45;;;2.20;;
70201;SDS011;57724;52.164;5.408;2022-08-11T14:41:58;4.93;;;2.40;;
70201;SDS011;57724;52.164;5.408;2022-08-11T14:44:46;4.28;;;2.15;;
70201;SDS011;57724;52.164;5.408;2022-08-11T14:47:34;5.55;;;2.30;;
70201;SDS011;57724;52.164;5.408;2022-08-11T14:50:03;5.80;;;2.30;;
70201;SDS011;57724;52.164;5.408;2022-08-11T14:52:38;3.92;;;2.13;;
70201;SDS011;57724;52.164;5.408;2022-08-11T14:55:15;4.18;;;2.20;;
70201;SDS011;57724;52.164;5.408;2022-08-11T14:58:02;9.27;;;2.22;;
70201;SDS011;57724;52.164;5.408;2022-08-11T15:00:31;4.13;;;2.00;;
70201;SDS011;57724;52.164;5.408;2022-08-11T15:02:59;5.28;;;2.10;;
70201;SDS011;57724;52.164;5.408;2022-08-11T15:05:43;4.47;;;2.30;;
70201;SDS011;57724;52.164;5.408;2022-08-11T15:08:30;3.08;;;2.30;;
70201;SDS011;57724;52.164;5.408;2022-08-11T15:11:18;7.28;;;2.13;;
70201;SDS011;57724;52.164;5.408;2022-08-11T15:14:06;4.60;;;2.30;;
70201;SDS011;57724;52.164;5.408;2022-08-11T15:19:23;3.83;;;2.00;;
70201;SDS011;57724;52.164;5.408;2022-08-11T15:21:51;3.35;;;1.92;;
70201;SDS011;57724;52.164;5.408;2022-08-11T15:24:36;7.15;;;2.28;;
70201;SDS011;57724;52.164;5.408;2022-08-11T15:27:04;5.32;;;2.05;;
70201;SDS011;57724;52.164;5.408;2022-08-11T15:29:55;6.47;;;2.30;;
70201;SDS011;57724;52.164;5.408;2022-08-11T15:33:00;7.22;;;2.25;;
70201;SDS011;57724;52.164;5.408;2022-08-11T15:35:52;3.30;;;2.08;;
70201;SDS011;57724;52.164;5.408;2022-08-11T15:38:41;3.20;;;2.10;;
70201;SDS011;57724;52.164;5.408;2022-08-11T15:41:12;4.22;;;2.20;;
70201;SDS011;57724;52.164;5.408;2022-08-11T15:44:01;3.67;;;2.10;;
70201;SDS011;57724;52.164;5.408;2022-08-11T15:47:14;4.63;;;2.40;;
70201;SDS011;57724;52.164;5.408;2022-08-11T15:49:43;5.25;;;2.28;;
70201;SDS011;57724;52.164;5.408;2022-08-11T15:52:32;8.13;;;2.30;;
70201;SDS011;57724;52.164;5.408;2022-08-11T15:55:04;4.32;;;2.60;;
70201;SDS011;57724;52.164;5.408;2022-08-11T15:57:34;5.13;;;2.40;;
70201;SDS011;57724;52.164;5.408;2022-08-11T16:03:06;5.85;;;2.60;;
70201;SDS011;57724;52.164;5.408;2022-08-11T16:06:13;4.63;;;2.20;;
70201;SDS011;57724;52.164;5.408;2022-08-11T16:08:41;5.57;;;2.45;;
70201;SDS011;57724;52.164;5.408;2022-08-11T16:11:10;6.15;;;2.50;;
70201;SDS011;57724;52.164;5.408;2022-08-11T16:13:38;4.38;;;2.30;;
70201;SDS011;57724;52.164;5.408;2022-08-11T16:16:06;4.82;;;2.40;;
70201;SDS011;57724;52.164;5.408;2022-08-11T16:18:47;7.03;;;2.40;;
70201;SDS011;57724;52.164;5.408;2022-08-11T16:21:22;5.93;;;2.40;;
70201;SDS011;57724;52.164;5.408;2022-08-11T16:24:05;8.52;;;3.00;;
70201;SDS011;57724;52.164;5.408;2022-08-11T16:26:54;6.72;;;2.35;;
70201;SDS011;57724;52.164;5.408;2022-08-11T16:29:39;7.50;;;2.78;;
70201;SDS011;57724;52.164;5.408;2022-08-11T16:32:10;3.63;;;2.30;;
70201;SDS011;57724;52.164;5.408;2022-08-11T16:34:43;7.65;;;2.50;;
70201;SDS011;57724;52.164;5.408;2022-08-11T16:37:33;5.57;;;2.22;;
70201;SDS011;57724;52.164;5.408;2022-08-11T16:40:20;4.10;;;2.13;;
70201;SDS011;57724;52.164;5.408;2022-08-11T16:42:48;6.75;;;2.22;;
70201;SDS011;57724;52.164;5.408;2022-08-11T16:45:37;6.15;;;2.30;;
70201;SDS011;57724;52.164;5.408;2022-08-11T16:48:25;7.55;;;2.58;;
70201;SDS011;57724;52.164;5.408;2022-08-11T16:51:06;6.63;;;2.00;;
70201;SDS011;57724;52.164;5.408;2022-08-11T16:53:36;4.05;;;2.10;;
70201;SDS011;57724;52.164;5.408;2022-08-11T16:59:16;4.28;;;2.00;;
70201;SDS011;57724;52.164;5.408;2022-08-11T17:01:47;8.68;;;2.30;;
70201;SDS011;57724;52.164;5.408;2022-08-11T17:07:29;4.38;;;2.20;;
70201;SDS011;57724;52.164;5.408;2022-08-11T17:10:29;5.35;;;1.95;;
70201;SDS011;57724;52.164;5.408;2022-08-11T17:13:30;4.43;;;2.05;;
70201;SDS011;57724;52.164;5.408;2022-08-11T17:16:02;4.20;;;2.13;;
70201;SDS011;57724;52.164;5.408;2022-08-11T17:19:17;3.67;;;2.15;;
70201;SDS011;57724;52.164;5.408;2022-08-11T17:21:32;7.88;;;2.33;;
70201;SDS011;57724;52.164;5.408;2022-08-11T17:24:23;8.05;;;2.20;;
70201;SDS011;57724;52.164;5.408;2022-08-11T17:26:53;4.55;;;1.92;;
70201;SDS011;57724;52.164;5.408;2022-08-11T17:32:30;7.40;;;2.95;;
70201;SDS011;57724;52.164;5.408;2022-08-11T17:35:29;4.47;;;2.67;;
70201;SDS011;57724;52.164;5.408;2022-08-11T17:38:13;6.18;;;2.60;;
70201;SDS011;57724;52.164;5.408;2022-08-11T17:40:51;5.22;;;2.53;;
70201;SDS011;57724;52.164;5.408;2022-08-11T17:43:49;7.35;;;2.63;;
70201;SDS011;57724;52.164;5.408;2022-08-11T17:46:36;3.67;;;2.40;;
70201;SDS011;57724;52.164;5.408;2022-08-11T17:49:29;8.35;;;3.88;;
70201;SDS011;57724;52.164;5.408;2022-08-11T17:52:03;4.88;;;2.45;;
70201;SDS011;57724;52.164;5.408;2022-08-11T17:54:51;5.47;;;2.72;;
70201;SDS011;57724;52.164;5.408;2022-08-11T17:57:39;4.13;;;2.30;;
70201;SDS011;57724;52.164;5.408;2022-08-11T18:00:25;6.57;;;2.40;;
70201;SDS011;57724;52.164;5.408;2022-08-11T18:02:53;7.88;;;2.20;;
70201;SDS011;57724;52.164;5.408;2022-08-11T18:05:41;4.72;;;2.00;;
70201;SDS011;57724;52.164;5.408;2022-08-11T18:08:11;4.65;;;1.83;;
70201;SDS011;57724;52.164;5.408;2022-08-11T18:11:00;6.95;;;2.50;;
70201;SDS011;57724;52.164;5.408;2022-08-11T18:14:14;8.35;;;5.03;;
70201;SDS011;57724;52.164;5.408;2022-08-11T18:17:00;3.10;;;1.92;;
70201;SDS011;57724;52.164;5.408;2022-08-11T18:19:52;5.05;;;1.85;;
70201;SDS011;57724;52.164;5.408;2022-08-11T18:22:39;4.72;;;2.20;;
70201;SDS011;57724;52.164;5.408;2022-08-11T18:25:30;4.95;;;2.00;;
70201;SDS011;57724;52.164;5.408;2022-08-11T18:28:20;6.43;;;2.10;;
70201;SDS011;57724;52.164;5.408;2022-08-11T18:31:10;6.40;;;2.25;;
70201;SDS011;57724;52.164;5.408;2022-08-11T18:34:01;5.18;;;2.40;;
70201;SDS011;57724;52.164;5.408;2022-08-11T18:37:06;5.85;;;2.60;;
70201;SDS011;57724;52.164;5.408;2022-08-11T18:40:06;5.55;;;2.42;;
70201;SDS011;57724;52.164;5.408;2022-08-11T18:42:56;6.13;;;2.55;;
70201;SDS011;57724;52.164;5.408;2022-08-11T18:45:44;4.78;;;2.35;;
70201;SDS011;57724;52.164;5.408;2022-08-11T18:48:36;3.08;;;1.90;;
70201;SDS011;57724;52.164;5.408;2022-08-11T18:51:25;2.90;;;1.90;;
70201;SDS011;57724;52.164;5.408;2022-08-11T18:54:11;3.72;;;2.00;;
70201;SDS011;57724;52.164;5.408;2022-08-11T18:57:01;8.27;;;2.13;;
70201;SDS011;57724;52.164;5.408;2022-08-11T18:59:50;5.45;;;2.20;;
70201;SDS011;57724;52.164;5.408;2022-08-11T19:02:38;9.73;;;3.22;;
70201;SDS011;57724;52.164;5.408;2022-08-11T19:05:24;7.90;;;3.10;;
70201;SDS011;57724;52.164;5.408;2022-08-11T19:08:34;6.43;;;2.75;;
70201;SDS011;57724;52.164;5.408;2022-08-11T19:11:24;5.90;;;2.40;;
70201;SDS011;57724;52.164;5.408;2022-08-11T19:14:11;4.32;;;2.13;;
70201;SDS011;57724;52.164;5.408;2022-08-11T19:17:00;6.05;;;2.10;;